sensor_id;sensor_type;location;lat;lon;timestamp;temperature;humidity
76263;DHT22;65080;50.908;6.916;2023-01-01T00:00:24;17.20;48.70
76263;DHT22;65080;50.908;6.916;2023-01-01T00:02:52;17.10;48.60
76263;DHT22;65080;50.908;6.916;2023-01-01T00:05:21;17.10;48.70
76263;DHT22;65080;50.908;6.916;2023-01-01T00:07:49;17.00;48.60
76263;DHT22;65080;50.908;6.916;2023-01-01T00:10:19;17.00;48.60
76263;DHT22;65080;50.908;6.916;2023-01-01T00:12:55;16.90;48.50
76263;DHT22;65080;50.908;6.916;2023-01-01T00:15:24;16.90;48.50
76263;DHT22;65080;50.908;6.916;2023-01-01T00:17:53;16.90;48.50
76263;DHT22;65080;50.908;6.916;2023-01-01T00:20:22;16.80;48.40
76263;DHT22;65080;50.908;6.916;2023-01-01T00:22:56;16.80;48.50
76263;DHT22;65080;50.908;6.916;2023-01-01T00:25:25;16.80;48.60
76263;DHT22;65080;50.908;6.916;2023-01-01T00:27:55;16.80;48.40
76263;DHT22;65080;50.908;6.916;2023-01-01T00:30:23;16.70;48.30
76263;DHT22;65080;50.908;6.916;2023-01-01T00:32:52;16.70;48.30
76263;DHT22;65080;50.908;6.916;2023-01-01T00:35:24;16.70;48.40
76263;DHT22;65080;50.908;6.916;2023-01-01T00:37:53;16.70;48.40
76263;DHT22;65080;50.908;6.916;2023-01-01T00:40:22;16.60;48.20
76263;DHT22;65080;50.908;6.916;2023-01-01T00:42:52;16.60;48.20
76263;DHT22;65080;50.908;6.916;2023-01-01T00:45:20;16.60;48.20
76263;DHT22;65080;50.908;6.916;2023-01-01T00:47:50;16.60;48.20
76263;DHT22;65080;50.908;6.916;2023-01-01T00:50:19;16.60;48.00
76263;DHT22;65080;50.908;6.916;2023-01-01T00:52:48;16.60;47.90
76263;DHT22;65080;50.908;6.916;2023-01-01T00:55:16;16.60;47.80
76263;DHT22;65080;50.908;6.916;2023-01-01T00:57:45;16.60;47.60
76263;DHT22;65080;50.908;6.916;2023-01-01T01:00:16;16.60;47.50
76263;DHT22;65080;50.908;6.916;2023-01-01T01:02:44;16.60;47.40
76263;DHT22;65080;50.908;6.916;2023-01-01T01:05:12;16.60;47.40
76263;DHT22;65080;50.908;6.916;2023-01-01T01:07:41;16.60;47.40
76263;DHT22;65080;50.908;6.916;2023-01-01T01:10:09;16.60;47.30
76263;DHT22;65080;50.908;6.916;2023-01-01T01:12:39;16.60;47.00
76263;DHT22;65080;50.908;6.916;2023-01-01T01:15:09;16.60;46.90
76263;DHT22;65080;50.908;6.916;2023-01-01T01:17:39;16.70;47.00
76263;DHT22;65080;50.908;6.916;2023-01-01T01:20:08;16.60;46.80
76263;DHT22;65080;50.908;6.916;2023-01-01T01:22:39;16.60;46.80
76263;DHT22;65080;50.908;6.916;2023-01-01T01:25:08;16.70;46.90
76263;DHT22;65080;50.908;6.916;2023-01-01T01:27:36;16.60;46.90
76263;DHT22;65080;50.908;6.916;2023-01-01T01:30:06;16.50;46.70
76263;DHT22;65080;50.908;6.916;2023-01-01T01:32:34;16.60;46.60
76263;DHT22;65080;50.908;6.916;2023-01-01T01:35:05;16.60;46.70
76263;DHT22;65080;50.908;6.916;2023-01-01T01:37:34;16.50;46.50
76263;DHT22;65080;50.908;6.916;2023-01-01T01:40:02;16.60;46.50
76263;DHT22;65080;50.908;6.916;2023-01-01T01:42:31;16.50;46.50
76263;DHT22;65080;50.908;6.916;2023-01-01T01:45:00;16.60;46.60
76263;DHT22;65080;50.908;6.916;2023-01-01T01:47:32;16.60;46.70
76263;DHT22;65080;50.908;6.916;2023-01-01T01:50:08;16.60;46.80
76263;DHT22;65080;50.908;6.916;2023-01-01T01:52:39;16.50;46.40
76263;DHT22;65080;50.908;6.916;2023-01-01T01:55:09;16.50;46.40
76263;DHT22;65080;50.908;6.916;2023-01-01T01:57:38;16.50;46.40
76263;DHT22;65080;50.908;6.916;2023-01-01T02:00:08;16.50;46.40
76263;DHT22;65080;50.908;6.916;2023-01-01T02:02:43;16.50;46.30
76263;DHT22;65080;50.908;6.916;2023-01-01T02:05:15;16.50;46.30
76263;DHT22;65080;50.908;6.916;2023-01-01T02:07:44;16.50;46.20
76263;DHT22;65080;50.908;6.916;2023-01-01T02:10:12;16.50;46.10
76263;DHT22;65080;50.908;6.916;2023-01-01T02:12:41;16.50;46.10
76263;DHT22;65080;50.908;6.916;2023-01-01T02:15:10;16.50;46.10
76263;DHT22;65080;50.908;6.916;2023-01-01T02:17:45;16.50;46.10
76263;DHT22;65080;50.908;6.916;2023-01-01T02:20:28;16.50;46.10
76263;DHT22;65080;50.908;6.916;2023-01-01T02:23:14;16.50;46.10
76263;DHT22;65080;50.908;6.916;2023-01-01T02:28:58;16.40;46.00
76263;DHT22;65080;50.908;6.916;2023-01-01T02:31:31;16.40;45.90
76263;DHT22;65080;50.908;6.916;2023-01-01T02:34:06;16.40;46.10
76263;DHT22;65080;50.908;6.916;2023-01-01T02:36:39;16.40;46.10
76263;DHT22;65080;50.908;6.916;2023-01-01T02:39:13;16.50;46.60
76263;DHT22;65080;50.908;6.916;2023-01-01T02:41:44;16.40;45.90
76263;DHT22;65080;50.908;6.916;2023-01-01T02:44:16;16.50;46.50
76263;DHT22;65080;50.908;6.916;2023-01-01T02:46:45;16.50;45.80
76263;DHT22;65080;50.908;6.916;2023-01-01T02:49:14;16.50;45.80
76263;DHT22;65080;50.908;6.916;2023-01-01T02:51:51;16.50;45.80
76263;DHT22;65080;50.908;6.916;2023-01-01T02:54:31;16.50;45.80
76263;DHT22;65080;50.908;6.916;2023-01-01T02:57:06;16.50;45.80
76263;DHT22;65080;50.908;6.916;2023-01-01T02:59:48;16.50;45.70
76263;DHT22;65080;50.908;6.916;2023-01-01T03:02:43;16.50;45.60
76263;DHT22;65080;50.908;6.916;2023-01-01T03:05:22;16.50;45.80
76263;DHT22;65080;50.908;6.916;2023-01-01T03:08:01;16.50;45.80
76263;DHT22;65080;50.908;6.916;2023-01-01T03:10:39;16.50;45.80
76263;DHT22;65080;50.908;6.916;2023-01-01T03:13:14;16.50;45.80
76263;DHT22;65080;50.908;6.916;2023-01-01T03:15:50;16.50;45.80
76263;DHT22;65080;50.908;6.916;2023-01-01T03:18:26;16.50;45.80
76263;DHT22;65080;50.908;6.916;2023-01-01T03:20:59;16.50;45.90
76263;DHT22;65080;50.908;6.916;2023-01-01T03:23:32;16.50;46.00
76263;DHT22;65080;50.908;6.916;2023-01-01T03:26:07;16.50;45.90
76263;DHT22;65080;50.908;6.916;2023-01-01T03:28:41;16.50;45.90
76263;DHT22;65080;50.908;6.916;2023-01-01T03:31:16;16.50;46.00
76263;DHT22;65080;50.908;6.916;2023-01-01T03:33:48;16.50;46.00
76263;DHT22;65080;50.908;6.916;2023-01-01T03:36:19;16.50;46.10
76263;DHT22;65080;50.908;6.916;2023-01-01T03:38:51;16.50;46.10
76263;DHT22;65080;50.908;6.916;2023-01-01T03:41:25;16.60;46.20
76263;DHT22;65080;50.908;6.916;2023-01-01T03:44:00;16.50;46.20
76263;DHT22;65080;50.908;6.916;2023-01-01T03:46:34;16.60;46.30
76263;DHT22;65080;50.908;6.916;2023-01-01T03:49:06;16.50;46.20
76263;DHT22;65080;50.908;6.916;2023-01-01T03:54:44;16.50;46.30
76263;DHT22;65080;50.908;6.916;2023-01-01T03:57:19;16.50;46.30
76263;DHT22;65080;50.908;6.916;2023-01-01T03:59:54;16.60;46.50
76263;DHT22;65080;50.908;6.916;2023-01-01T04:02:28;16.60;46.50
76263;DHT22;65080;50.908;6.916;2023-01-01T04:05:00;16.60;46.60
76263;DHT22;65080;50.908;6.916;2023-01-01T04:07:31;16.60;46.60
76263;DHT22;65080;50.908;6.916;2023-01-01T04:10:01;16.60;46.60
76263;DHT22;65080;50.908;6.916;2023-01-01T04:12:45;16.60;46.70
76263;DHT22;65080;50.908;6.916;2023-01-01T04:15:14;16.60;46.80
76263;DHT22;65080;50.908;6.916;2023-01-01T04:17:44;16.60;46.90
76263;DHT22;65080;50.908;6.916;2023-01-01T04:20:13;16.60;46.90
76263;DHT22;65080;50.908;6.916;2023-01-01T04:22:42;16.60;47.00
76263;DHT22;65080;50.908;6.916;2023-01-01T04:25:11;16.70;47.00
76263;DHT22;65080;50.908;6.916;2023-01-01T04:27:40;16.70;47.10
76263;DHT22;65080;50.908;6.916;2023-01-01T04:30:11;16.70;47.10
76263;DHT22;65080;50.908;6.916;2023-01-01T04:32:40;16.70;47.10
76263;DHT22;65080;50.908;6.916;2023-01-01T04:35:12;16.60;47.00
76263;DHT22;65080;50.908;6.916;2023-01-01T04:37:42;16.60;47.00
76263;DHT22;65080;50.908;6.916;2023-01-01T04:40:12;16.70;47.20
76263;DHT22;65080;50.908;6.916;2023-01-01T04:42:42;16.70;47.30
76263;DHT22;65080;50.908;6.916;2023-01-01T04:45:11;16.70;47.30
76263;DHT22;65080;50.908;6.916;2023-01-01T04:47:41;16.70;47.40
76263;DHT22;65080;50.908;6.916;2023-01-01T04:50:12;16.60;47.40
76263;DHT22;65080;50.908;6.916;2023-01-01T04:52:40;16.60;47.40
76263;DHT22;65080;50.908;6.916;2023-01-01T04:55:09;16.60;47.50
76263;DHT22;65080;50.908;6.916;2023-01-01T04:57:37;16.60;47.50
76263;DHT22;65080;50.908;6.916;2023-01-01T05:00:07;16.60;47.60
76263;DHT22;65080;50.908;6.916;2023-01-01T05:02:36;16.60;47.70
76263;DHT22;65080;50.908;6.916;2023-01-01T05:05:05;16.60;47.80
76263;DHT22;65080;50.908;6.916;2023-01-01T05:07:35;16.60;47.90
76263;DHT22;65080;50.908;6.916;2023-01-01T05:10:04;16.60;48.00
76263;DHT22;65080;50.908;6.916;2023-01-01T05:12:33;16.50;48.10
76263;DHT22;65080;50.908;6.916;2023-01-01T05:15:01;16.50;48.10
76263;DHT22;65080;50.908;6.916;2023-01-01T05:17:29;16.50;48.20
76263;DHT22;65080;50.908;6.916;2023-01-01T05:19:58;16.50;48.20
76263;DHT22;65080;50.908;6.916;2023-01-01T05:22:26;16.50;48.40
76263;DHT22;65080;50.908;6.916;2023-01-01T05:24:55;16.50;48.50
76263;DHT22;65080;50.908;6.916;2023-01-01T05:27:24;16.50;48.60
76263;DHT22;65080;50.908;6.916;2023-01-01T05:29:52;16.40;48.60
76263;DHT22;65080;50.908;6.916;2023-01-01T05:32:20;16.40;48.70
76263;DHT22;65080;50.908;6.916;2023-01-01T05:34:49;16.40;48.70
76263;DHT22;65080;50.908;6.916;2023-01-01T05:37:17;16.40;48.80
76263;DHT22;65080;50.908;6.916;2023-01-01T05:39:45;16.40;48.90
76263;DHT22;65080;50.908;6.916;2023-01-01T05:42:16;16.40;49.10
76263;DHT22;65080;50.908;6.916;2023-01-01T05:44:45;16.30;49.10
76263;DHT22;65080;50.908;6.916;2023-01-01T05:47:14;16.30;49.10
76263;DHT22;65080;50.908;6.916;2023-01-01T05:49:44;16.30;49.20
76263;DHT22;65080;50.908;6.916;2023-01-01T05:52:13;16.30;49.30
76263;DHT22;65080;50.908;6.916;2023-01-01T05:54:41;16.30;49.40
76263;DHT22;65080;50.908;6.916;2023-01-01T05:57:09;16.30;49.40
76263;DHT22;65080;50.908;6.916;2023-01-01T05:59:39;16.30;49.50
76263;DHT22;65080;50.908;6.916;2023-01-01T06:02:08;16.30;49.50
76263;DHT22;65080;50.908;6.916;2023-01-01T06:04:36;16.30;49.60
76263;DHT22;65080;50.908;6.916;2023-01-01T06:07:05;16.30;49.60
76263;DHT22;65080;50.908;6.916;2023-01-01T06:09:33;16.30;49.70
76263;DHT22;65080;50.908;6.916;2023-01-01T06:12:02;16.30;49.80
76263;DHT22;65080;50.908;6.916;2023-01-01T06:14:30;16.30;50.00
76263;DHT22;65080;50.908;6.916;2023-01-01T06:17:00;16.30;49.90
76263;DHT22;65080;50.908;6.916;2023-01-01T06:19:29;16.30;50.00
76263;DHT22;65080;50.908;6.916;2023-01-01T06:21:57;16.30;50.10
76263;DHT22;65080;50.908;6.916;2023-01-01T06:24:25;16.30;50.10
76263;DHT22;65080;50.908;6.916;2023-01-01T06:26:57;16.30;50.30
76263;DHT22;65080;50.908;6.916;2023-01-01T06:29:25;16.30;50.40
76263;DHT22;65080;50.908;6.916;2023-01-01T06:35:24;16.30;50.60
76263;DHT22;65080;50.908;6.916;2023-01-01T06:37:58;16.30;50.60
76263;DHT22;65080;50.908;6.916;2023-01-01T06:40:26;16.30;50.80
76263;DHT22;65080;50.908;6.916;2023-01-01T06:42:55;16.30;50.90
76263;DHT22;65080;50.908;6.916;2023-01-01T06:45:23;16.30;51.00
76263;DHT22;65080;50.908;6.916;2023-01-01T06:47:53;16.20;50.90
76263;DHT22;65080;50.908;6.916;2023-01-01T06:50:21;16.30;51.10
76263;DHT22;65080;50.908;6.916;2023-01-01T06:52:49;16.30;51.20
76263;DHT22;65080;50.908;6.916;2023-01-01T06:55:18;16.30;51.30
76263;DHT22;65080;50.908;6.916;2023-01-01T06:57:46;16.20;51.30
76263;DHT22;65080;50.908;6.916;2023-01-01T07:00:18;16.20;51.40
76263;DHT22;65080;50.908;6.916;2023-01-01T07:02:47;16.30;51.50
76263;DHT22;65080;50.908;6.916;2023-01-01T07:05:17;16.30;51.60
76263;DHT22;65080;50.908;6.916;2023-01-01T07:07:45;16.30;51.70
76263;DHT22;65080;50.908;6.916;2023-01-01T07:10:14;16.20;51.60
76263;DHT22;65080;50.908;6.916;2023-01-01T07:12:42;16.30;51.70
76263;DHT22;65080;50.908;6.916;2023-01-01T07:15:10;16.30;51.80
76263;DHT22;65080;50.908;6.916;2023-01-01T07:17:39;16.30;51.70
76263;DHT22;65080;50.908;6.916;2023-01-01T07:20:08;16.30;51.80
76263;DHT22;65080;50.908;6.916;2023-01-01T07:22:39;16.30;51.80
76263;DHT22;65080;50.908;6.916;2023-01-01T07:25:09;16.30;51.80
76263;DHT22;65080;50.908;6.916;2023-01-01T07:27:40;16.40;52.00
76263;DHT22;65080;50.908;6.916;2023-01-01T07:30:11;16.40;52.00
76263;DHT22;65080;50.908;6.916;2023-01-01T07:32:40;16.40;52.00
76263;DHT22;65080;50.908;6.916;2023-01-01T07:35:08;16.40;52.00
76263;DHT22;65080;50.908;6.916;2023-01-01T07:37:38;16.40;52.00
76263;DHT22;65080;50.908;6.916;2023-01-01T07:40:07;16.40;52.10
76263;DHT22;65080;50.908;6.916;2023-01-01T07:42:36;16.40;52.10
76263;DHT22;65080;50.908;6.916;2023-01-01T07:45:05;16.40;52.10
76263;DHT22;65080;50.908;6.916;2023-01-01T07:47:34;16.40;52.10
76263;DHT22;65080;50.908;6.916;2023-01-01T07:50:02;16.40;52.10
76263;DHT22;65080;50.908;6.916;2023-01-01T07:52:30;16.40;52.20
76263;DHT22;65080;50.908;6.916;2023-01-01T07:55:00;16.40;52.20
76263;DHT22;65080;50.908;6.916;2023-01-01T07:57:29;16.40;52.30
76263;DHT22;65080;50.908;6.916;2023-01-01T07:59:57;16.40;52.40
76263;DHT22;65080;50.908;6.916;2023-01-01T08:02:25;16.40;52.50
76263;DHT22;65080;50.908;6.916;2023-01-01T08:04:54;16.40;52.60
76263;DHT22;65080;50.908;6.916;2023-01-01T08:07:22;16.40;52.60
76263;DHT22;65080;50.908;6.916;2023-01-01T08:09:51;16.40;52.80
76263;DHT22;65080;50.908;6.916;2023-01-01T08:12:20;16.40;52.90
76263;DHT22;65080;50.908;6.916;2023-01-01T08:14:49;16.30;52.80
76263;DHT22;65080;50.908;6.916;2023-01-01T08:17:17;16.30;52.90
76263;DHT22;65080;50.908;6.916;2023-01-01T08:19:45;16.40;53.10
76263;DHT22;65080;50.908;6.916;2023-01-01T08:22:15;16.30;53.10
76263;DHT22;65080;50.908;6.916;2023-01-01T08:24:43;16.40;53.10
76263;DHT22;65080;50.908;6.916;2023-01-01T08:27:13;16.40;53.10
76263;DHT22;65080;50.908;6.916;2023-01-01T08:29:43;16.30;53.10
76263;DHT22;65080;50.908;6.916;2023-01-01T08:32:12;16.30;53.30
76263;DHT22;65080;50.908;6.916;2023-01-01T08:34:40;16.30;53.40
76263;DHT22;65080;50.908;6.916;2023-01-01T08:37:11;16.30;53.50
76263;DHT22;65080;50.908;6.916;2023-01-01T08:39:40;16.30;53.70
76263;DHT22;65080;50.908;6.916;2023-01-01T08:42:08;16.30;53.90
76263;DHT22;65080;50.908;6.916;2023-01-01T08:44:38;16.20;53.90
76263;DHT22;65080;50.908;6.916;2023-01-01T08:47:16;16.30;54.10
76263;DHT22;65080;50.908;6.916;2023-01-01T08:49:44;16.20;54.20
76263;DHT22;65080;50.908;6.916;2023-01-01T08:52:14;16.20;54.30
76263;DHT22;65080;50.908;6.916;2023-01-01T08:54:42;16.20;54.40
76263;DHT22;65080;50.908;6.916;2023-01-01T08:57:11;16.20;54.50
76263;DHT22;65080;50.908;6.916;2023-01-01T08:59:39;16.20;54.70
76263;DHT22;65080;50.908;6.916;2023-01-01T09:02:09;16.20;54.90
76263;DHT22;65080;50.908;6.916;2023-01-01T09:04:39;16.20;55.00
76263;DHT22;65080;50.908;6.916;2023-01-01T09:07:07;16.20;55.10
76263;DHT22;65080;50.908;6.916;2023-01-01T09:09:35;16.10;55.10
76263;DHT22;65080;50.908;6.916;2023-01-01T09:12:04;16.10;55.30
76263;DHT22;65080;50.908;6.916;2023-01-01T09:14:35;16.10;55.40
76263;DHT22;65080;50.908;6.916;2023-01-01T09:17:03;16.10;55.70
76263;DHT22;65080;50.908;6.916;2023-01-01T09:19:31;16.00;55.50
76263;DHT22;65080;50.908;6.916;2023-01-01T09:22:01;16.00;55.70
76263;DHT22;65080;50.908;6.916;2023-01-01T09:24:29;16.00;55.70
76263;DHT22;65080;50.908;6.916;2023-01-01T09:26:58;16.00;55.80
76263;DHT22;65080;50.908;6.916;2023-01-01T09:29:26;16.00;55.80
76263;DHT22;65080;50.908;6.916;2023-01-01T09:31:54;16.00;55.90
76263;DHT22;65080;50.908;6.916;2023-01-01T09:34:23;16.00;55.90
76263;DHT22;65080;50.908;6.916;2023-01-01T09:36:51;16.00;56.00
76263;DHT22;65080;50.908;6.916;2023-01-01T09:39:21;16.00;56.10
76263;DHT22;65080;50.908;6.916;2023-01-01T09:42:10;16.00;56.20
76263;DHT22;65080;50.908;6.916;2023-01-01T09:45:10;16.10;56.30
76263;DHT22;65080;50.908;6.916;2023-01-01T09:47:45;16.10;56.20
76263;DHT22;65080;50.908;6.916;2023-01-01T09:50:16;16.10;56.20
76263;DHT22;65080;50.908;6.916;2023-01-01T09:52:51;16.10;56.20
76263;DHT22;65080;50.908;6.916;2023-01-01T09:55:26;16.10;56.20
76263;DHT22;65080;50.908;6.916;2023-01-01T09:57:55;16.10;56.10
76263;DHT22;65080;50.908;6.916;2023-01-01T10:00:24;16.10;56.10
76263;DHT22;65080;50.908;6.916;2023-01-01T10:03:34;16.10;56.10
76263;DHT22;65080;50.908;6.916;2023-01-01T10:06:19;16.10;56.20
76263;DHT22;65080;50.908;6.916;2023-01-01T10:09:15;16.20;56.20
76263;DHT22;65080;50.908;6.916;2023-01-01T10:11:52;16.20;56.00
76263;DHT22;65080;50.908;6.916;2023-01-01T10:14:26;16.30;56.20
76263;DHT22;65080;50.908;6.916;2023-01-01T10:16:58;16.30;56.30
76263;DHT22;65080;50.908;6.916;2023-01-01T10:19:33;16.30;56.30
76263;DHT22;65080;50.908;6.916;2023-01-01T10:22:07;16.30;56.20
76263;DHT22;65080;50.908;6.916;2023-01-01T10:24:42;16.30;56.10
76263;DHT22;65080;50.908;6.916;2023-01-01T10:27:24;16.30;56.10
76263;DHT22;65080;50.908;6.916;2023-01-01T10:29:53;16.30;56.20
76263;DHT22;65080;50.908;6.916;2023-01-01T10:32:32;16.30;56.30
76263;DHT22;65080;50.908;6.916;2023-01-01T10:35:02;16.30;56.20
76263;DHT22;65080;50.908;6.916;2023-01-01T10:37:37;16.30;56.20
76263;DHT22;65080;50.908;6.916;2023-01-01T10:40:14;16.30;56.40
76263;DHT22;65080;50.908;6.916;2023-01-01T10:42:47;16.30;56.30
76263;DHT22;65080;50.908;6.916;2023-01-01T10:45:18;16.30;56.30
76263;DHT22;65080;50.908;6.916;2023-01-01T10:48:09;16.30;56.30
76263;DHT22;65080;50.908;6.916;2023-01-01T10:50:43;16.40;56.50
76263;DHT22;65080;50.908;6.916;2023-01-01T10:56:07;16.40;56.50
76263;DHT22;65080;50.908;6.916;2023-01-01T10:58:41;16.30;56.40
76263;DHT22;65080;50.908;6.916;2023-01-01T11:01:12;16.30;56.40
76263;DHT22;65080;50.908;6.916;2023-01-01T11:03:57;16.30;56.40
76263;DHT22;65080;50.908;6.916;2023-01-01T11:06:28;16.30;56.30
76263;DHT22;65080;50.908;6.916;2023-01-01T11:09:00;16.30;56.30
76263;DHT22;65080;50.908;6.916;2023-01-01T11:11:31;16.30;56.30
76263;DHT22;65080;50.908;6.916;2023-01-01T11:14:02;16.30;56.40
76263;DHT22;65080;50.908;6.916;2023-01-01T11:16:32;16.30;56.40
76263;DHT22;65080;50.908;6.916;2023-01-01T11:19:02;16.30;56.30
76263;DHT22;65080;50.908;6.916;2023-01-01T11:21:31;16.30;56.30
76263;DHT22;65080;50.908;6.916;2023-01-01T11:24:17;16.30;56.30
76263;DHT22;65080;50.908;6.916;2023-01-01T11:26:46;16.20;56.30
76263;DHT22;65080;50.908;6.916;2023-01-01T11:29:25;16.20;56.30
76263;DHT22;65080;50.908;6.916;2023-01-01T11:31:57;16.30;56.40
76263;DHT22;65080;50.908;6.916;2023-01-01T11:34:32;16.20;56.30
76263;DHT22;65080;50.908;6.916;2023-01-01T11:37:17;16.30;56.40
76263;DHT22;65080;50.908;6.916;2023-01-01T11:39:48;16.30;56.60
76263;DHT22;65080;50.908;6.916;2023-01-01T11:42:18;16.30;56.50
76263;DHT22;65080;50.908;6.916;2023-01-01T11:44:50;16.30;56.40
76263;DHT22;65080;50.908;6.916;2023-01-01T11:47:23;16.30;56.40
76263;DHT22;65080;50.908;6.916;2023-01-01T11:49:54;16.30;56.30
76263;DHT22;65080;50.908;6.916;2023-01-01T11:52:28;16.30;56.40
76263;DHT22;65080;50.908;6.916;2023-01-01T11:55:10;16.30;56.30
76263;DHT22;65080;50.908;6.916;2023-01-01T11:57:42;16.30;56.30
76263;DHT22;65080;50.908;6.916;2023-01-01T12:00:15;16.30;56.30
76263;DHT22;65080;50.908;6.916;2023-01-01T12:02:47;16.30;56.40
76263;DHT22;65080;50.908;6.916;2023-01-01T12:05:19;16.30;56.30
76263;DHT22;65080;50.908;6.916;2023-01-01T12:07:50;16.30;56.20
76263;DHT22;65080;50.908;6.916;2023-01-01T12:10:22;16.30;56.30
76263;DHT22;65080;50.908;6.916;2023-01-01T12:12:56;16.30;56.20
76263;DHT22;65080;50.908;6.916;2023-01-01T12:15:34;16.30;56.10
76263;DHT22;65080;50.908;6.916;2023-01-01T12:18:06;16.30;56.10
76263;DHT22;65080;50.908;6.916;2023-01-01T12:20:43;16.30;56.20
76263;DHT22;65080;50.908;6.916;2023-01-01T12:23:14;16.30;56.20
76263;DHT22;65080;50.908;6.916;2023-01-01T12:25:48;16.30;56.10
76263;DHT22;65080;50.908;6.916;2023-01-01T12:28:30;16.30;56.00
76263;DHT22;65080;50.908;6.916;2023-01-01T12:31:09;16.30;56.00
76263;DHT22;65080;50.908;6.916;2023-01-01T12:34:03;16.30;56.00
76263;DHT22;65080;50.908;6.916;2023-01-01T12:36:41;16.40;56.00
76263;DHT22;65080;50.908;6.916;2023-01-01T12:42:31;16.40;55.70
76263;DHT22;65080;50.908;6.916;2023-01-01T12:45:22;16.40;55.60
76263;DHT22;65080;50.908;6.916;2023-01-01T12:48:03;16.40;55.50
76263;DHT22;65080;50.908;6.916;2023-01-01T12:50:44;16.50;55.50
76263;DHT22;65080;50.908;6.916;2023-01-01T12:53:28;16.50;55.40
76263;DHT22;65080;50.908;6.916;2023-01-01T12:56:14;16.50;55.20
76263;DHT22;65080;50.908;6.916;2023-01-01T12:58:53;16.50;55.10
76263;DHT22;65080;50.908;6.916;2023-01-01T13:01:24;16.50;55.20
76263;DHT22;65080;50.908;6.916;2023-01-01T13:04:03;16.50;55.20
76263;DHT22;65080;50.908;6.916;2023-01-01T13:06:36;16.50;55.10
76263;DHT22;65080;50.908;6.916;2023-01-01T13:09:10;16.60;55.00
76263;DHT22;65080;50.908;6.916;2023-01-01T13:11:40;16.60;54.80
76263;DHT22;65080;50.908;6.916;2023-01-01T13:14:11;16.50;54.90
76263;DHT22;65080;50.908;6.916;2023-01-01T13:16:41;16.50;54.90
76263;DHT22;65080;50.908;6.916;2023-01-01T13:19:24;16.60;54.70
76263;DHT22;65080;50.908;6.916;2023-01-01T13:21:53;16.60;54.40
76263;DHT22;65080;50.908;6.916;2023-01-01T13:24:23;16.60;54.50
76263;DHT22;65080;50.908;6.916;2023-01-01T13:26:52;16.50;54.30
76263;DHT22;65080;50.908;6.916;2023-01-01T13:29:50;16.50;54.20
76263;DHT22;65080;50.908;6.916;2023-01-01T13:32:19;16.50;53.80
76263;DHT22;65080;50.908;6.916;2023-01-01T13:35:13;16.50;54.00
76263;DHT22;65080;50.908;6.916;2023-01-01T13:37:46;16.60;53.90
76263;DHT22;65080;50.908;6.916;2023-01-01T13:40:46;16.50;53.80
76263;DHT22;65080;50.908;6.916;2023-01-01T13:43:25;16.50;53.60
76263;DHT22;65080;50.908;6.916;2023-01-01T13:45:54;16.50;53.60
76263;DHT22;65080;50.908;6.916;2023-01-01T13:49:03;16.50;53.60
76263;DHT22;65080;50.908;6.916;2023-01-01T13:51:56;16.50;53.40
76263;DHT22;65080;50.908;6.916;2023-01-01T13:54:55;16.50;53.20
76263;DHT22;65080;50.908;6.916;2023-01-01T13:57:42;16.50;53.20
76263;DHT22;65080;50.908;6.916;2023-01-01T14:00:18;16.50;53.30
76263;DHT22;65080;50.908;6.916;2023-01-01T14:02:51;16.50;53.20
76263;DHT22;65080;50.908;6.916;2023-01-01T14:05:28;16.50;53.00
76263;DHT22;65080;50.908;6.916;2023-01-01T14:07:58;16.50;53.00
76263;DHT22;65080;50.908;6.916;2023-01-01T14:10:28;16.50;53.10
76263;DHT22;65080;50.908;6.916;2023-01-01T14:13:13;16.50;53.10
76263;DHT22;65080;50.908;6.916;2023-01-01T14:15:50;16.60;53.10
76263;DHT22;65080;50.908;6.916;2023-01-01T14:18:26;16.50;53.00
76263;DHT22;65080;50.908;6.916;2023-01-01T14:20:56;16.50;53.00
76263;DHT22;65080;50.908;6.916;2023-01-01T14:23:30;16.50;53.00
76263;DHT22;65080;50.908;6.916;2023-01-01T14:26:00;16.50;53.00
76263;DHT22;65080;50.908;6.916;2023-01-01T14:28:30;16.50;53.00
76263;DHT22;65080;50.908;6.916;2023-01-01T14:31:01;16.50;53.10
76263;DHT22;65080;50.908;6.916;2023-01-01T14:33:37;16.50;53.10
76263;DHT22;65080;50.908;6.916;2023-01-01T14:36:15;16.40;53.00
76263;DHT22;65080;50.908;6.916;2023-01-01T14:38:47;16.40;52.90
76263;DHT22;65080;50.908;6.916;2023-01-01T14:41:18;16.40;53.00
76263;DHT22;65080;50.908;6.916;2023-01-01T14:43:50;16.40;53.10
76263;DHT22;65080;50.908;6.916;2023-01-01T14:46:20;16.40;53.20
76263;DHT22;65080;50.908;6.916;2023-01-01T14:48:51;16.30;53.30
76263;DHT22;65080;50.908;6.916;2023-01-01T14:51:21;16.30;53.30
76263;DHT22;65080;50.908;6.916;2023-01-01T14:53:54;16.30;53.40
76263;DHT22;65080;50.908;6.916;2023-01-01T14:56:24;16.30;53.50
76263;DHT22;65080;50.908;6.916;2023-01-01T14:58:55;16.30;53.70
76263;DHT22;65080;50.908;6.916;2023-01-01T15:01:28;16.20;53.80
76263;DHT22;65080;50.908;6.916;2023-01-01T15:03:59;16.10;53.90
76263;DHT22;65080;50.908;6.916;2023-01-01T15:06:28;16.10;54.10
76263;DHT22;65080;50.908;6.916;2023-01-01T15:08:58;16.10;54.20
76263;DHT22;65080;50.908;6.916;2023-01-01T15:11:26;16.00;54.20
76263;DHT22;65080;50.908;6.916;2023-01-01T15:13:58;16.00;54.50
76263;DHT22;65080;50.908;6.916;2023-01-01T15:16:27;16.00;54.80
76263;DHT22;65080;50.908;6.916;2023-01-01T15:19:15;16.00;55.00
76263;DHT22;65080;50.908;6.916;2023-01-01T15:21:45;16.00;55.50
76263;DHT22;65080;50.908;6.916;2023-01-01T15:24:17;15.90;55.70
76263;DHT22;65080;50.908;6.916;2023-01-01T15:26:50;15.90;56.10
76263;DHT22;65080;50.908;6.916;2023-01-01T15:29:25;15.80;56.50
76263;DHT22;65080;50.908;6.916;2023-01-01T15:31:56;15.80;57.10
76263;DHT22;65080;50.908;6.916;2023-01-01T15:34:29;15.70;57.40
76263;DHT22;65080;50.908;6.916;2023-01-01T15:37:07;15.70;57.80
76263;DHT22;65080;50.908;6.916;2023-01-01T15:39:46;15.70;58.20
76263;DHT22;65080;50.908;6.916;2023-01-01T15:42:28;15.60;58.50
76263;DHT22;65080;50.908;6.916;2023-01-01T15:45:14;15.50;58.80
76263;DHT22;65080;50.908;6.916;2023-01-01T15:47:43;15.50;59.20
76263;DHT22;65080;50.908;6.916;2023-01-01T15:50:20;15.40;59.40
76263;DHT22;65080;50.908;6.916;2023-01-01T15:52:51;15.30;59.90
76263;DHT22;65080;50.908;6.916;2023-01-01T15:55:25;15.30;60.20
76263;DHT22;65080;50.908;6.916;2023-01-01T15:57:58;15.20;60.60
76263;DHT22;65080;50.908;6.916;2023-01-01T16:00:29;15.20;61.10
76263;DHT22;65080;50.908;6.916;2023-01-01T16:03:02;15.10;61.30
76263;DHT22;65080;50.908;6.916;2023-01-01T16:05:45;15.10;61.70
76263;DHT22;65080;50.908;6.916;2023-01-01T16:08:13;15.10;62.20
76263;DHT22;65080;50.908;6.916;2023-01-01T16:10:45;15.00;62.40
76263;DHT22;65080;50.908;6.916;2023-01-01T16:13:14;15.00;63.50
76263;DHT22;65080;50.908;6.916;2023-01-01T16:15:49;15.00;63.20
76263;DHT22;65080;50.908;6.916;2023-01-01T16:18:17;14.90;63.80